sensor_id;sensor_type;location;lat;lon;timestamp;P1;durP1;ratioP1;P2;durP2;ratioP2
19347;SDS011;9810;52.480;9.806;2022-09-12T00:01:37;10.17;;;6.83;;
19347;SDS011;9810;52.480;9.806;2022-09-12T00:04:04;10.00;;;6.80;;
19347;SDS011;9810;52.480;9.806;2022-09-12T00:06:32;12.90;;;8.07;;
19347;SDS011;9810;52.480;9.806;2022-09-12T00:09:03;13.00;;;7.77;;
19347;SDS011;9810;52.480;9.806;2022-09-12T00:11:33;13.83;;;8.80;;
19347;SDS011;9810;52.480;9.806;2022-09-12T00:14:01;18.07;;;9.70;;
19347;SDS011;9810;52.480;9.806;2022-09-12T00:16:31;16.80;;;8.60;;
19347;SDS011;9810;52.480;9.806;2022-09-12T00:18:59;20.90;;;10.17;;
19347;SDS011;9810;52.480;9.806;2022-09-12T00:21:28;11.53;;;7.23;;
19347;SDS011;9810;52.480;9.806;2022-09-12T00:23:55;5.67;;;2.83;;
19347;SDS011;9810;52.480;9.806;2022-09-12T00:26:24;5.10;;;2.30;;
19347;SDS011;9810;52.480;9.806;2022-09-12T00:28:52;69.63;;;5.07;;
19347;SDS011;9810;52.480;9.806;2022-09-12T00:31:20;18.57;;;2.97;;
19347;SDS011;9810;52.480;9.806;2022-09-12T00:33:49;11.75;;;3.80;;
19347;SDS011;9810;52.480;9.806;2022-09-12T00:36:17;4.87;;;2.87;;
19347;SDS011;9810;52.480;9.806;2022-09-12T00:38:46;7.83;;;4.07;;
19347;SDS011;9810;52.480;9.806;2022-09-12T00:41:16;12.03;;;4.60;;
19347;SDS011;9810;52.480;9.806;2022-09-12T00:43:48;8.53;;;5.10;;
19347;SDS011;9810;52.480;9.806;2022-09-12T00:46:19;13.20;;;5.63;;
19347;SDS011;9810;52.480;9.806;2022-09-12T00:48:54;10.87;;;6.60;;
19347;SDS011;9810;52.480;9.806;2022-09-12T00:51:25;15.60;;;7.47;;
19347;SDS011;9810;52.480;9.806;2022-09-12T00:53:54;15.52;;;7.68;;
19347;SDS011;9810;52.480;9.806;2022-09-12T00:56:23;17.77;;;10.00;;
19347;SDS011;9810;52.480;9.806;2022-09-12T00:58:54;26.63;;;6.73;;
19347;SDS011;9810;52.480;9.806;2022-09-12T01:01:26;38.03;;;5.27;;
19347;SDS011;9810;52.480;9.806;2022-09-12T01:03:53;54.63;;;6.40;;
19347;SDS011;9810;52.480;9.806;2022-09-12T01:06:21;46.83;;;5.73;;
19347;SDS011;9810;52.480;9.806;2022-09-12T01:08:52;150.80;;;9.40;;
19347;SDS011;9810;52.480;9.806;2022-09-12T01:11:21;62.83;;;6.77;;
19347;SDS011;9810;52.480;9.806;2022-09-12T01:13:49;53.07;;;10.23;;
19347;SDS011;9810;52.480;9.806;2022-09-12T01:16:18;68.13;;;12.53;;
19347;SDS011;9810;52.480;9.806;2022-09-12T01:18:50;71.53;;;13.13;;
19347;SDS011;9810;52.480;9.806;2022-09-12T01:21:31;45.07;;;11.23;;
19347;SDS011;9810;52.480;9.806;2022-09-12T01:27:12;40.70;;;9.90;;
19347;SDS011;9810;52.480;9.806;2022-09-12T01:29:58;44.83;;;10.10;;
19347;SDS011;9810;52.480;9.806;2022-09-12T01:32:48;50.93;;;8.80;;
19347;SDS011;9810;52.480;9.806;2022-09-12T01:35:27;27.47;;;8.03;;
19347;SDS011;9810;52.480;9.806;2022-09-12T01:38:04;48.00;;;8.70;;
19347;SDS011;9810;52.480;9.806;2022-09-12T01:40:39;60.47;;;10.67;;
19347;SDS011;9810;52.480;9.806;2022-09-12T01:43:14;33.20;;;9.33;;
19347;SDS011;9810;52.480;9.806;2022-09-12T01:45:45;48.07;;;9.67;;
19347;SDS011;9810;52.480;9.806;2022-09-12T01:48:21;23.03;;;8.67;;
19347;SDS011;9810;52.480;9.806;2022-09-12T01:50:53;80.67;;;9.23;;
19347;SDS011;9810;52.480;9.806;2022-09-12T01:53:25;47.40;;;8.20;;
19347;SDS011;9810;52.480;9.806;2022-09-12T01:55:55;20.90;;;7.17;;
19347;SDS011;9810;52.480;9.806;2022-09-12T01:58:28;58.87;;;8.47;;
19347;SDS011;9810;52.480;9.806;2022-09-12T02:01:01;25.70;;;7.73;;
19347;SDS011;9810;52.480;9.806;2022-09-12T02:03:33;33.10;;;7.40;;
19347;SDS011;9810;52.480;9.806;2022-09-12T02:06:10;45.03;;;8.53;;
19347;SDS011;9810;52.480;9.806;2022-09-12T02:08:45;120.13;;;10.57;;
19347;SDS011;9810;52.480;9.806;2022-09-12T02:11:14;24.75;;;7.95;;
19347;SDS011;9810;52.480;9.806;2022-09-12T02:13:43;8.33;;;6.87;;
19347;SDS011;9810;52.480;9.806;2022-09-12T02:16:14;9.17;;;7.27;;
19347;SDS011;9810;52.480;9.806;2022-09-12T02:18:48;15.63;;;7.90;;
19347;SDS011;9810;52.480;9.806;2022-09-12T02:21:19;16.63;;;8.13;;
19347;SDS011;9810;52.480;9.806;2022-09-12T02:23:49;37.53;;;7.50;;
19347;SDS011;9810;52.480;9.806;2022-09-12T02:26:22;14.20;;;5.73;;
19347;SDS011;9810;52.480;9.806;2022-09-12T02:28:52;56.73;;;7.97;;
19347;SDS011;9810;52.480;9.806;2022-09-12T02:31:21;22.17;;;6.47;;
19347;SDS011;9810;52.480;9.806;2022-09-12T02:33:56;45.50;;;8.57;;
19347;SDS011;9810;52.480;9.806;2022-09-12T02:36:34;57.43;;;7.43;;
19347;SDS011;9810;52.480;9.806;2022-09-12T02:39:09;135.67;;;8.80;;
19347;SDS011;9810;52.480;9.806;2022-09-12T02:41:36;151.03;;;8.83;;
19347;SDS011;9810;52.480;9.806;2022-09-12T02:44:04;90.23;;;7.80;;
19347;SDS011;9810;52.480;9.806;2022-09-12T02:46:32;31.90;;;6.30;;
19347;SDS011;9810;52.480;9.806;2022-09-12T02:49:05;9.10;;;5.37;;
19347;SDS011;9810;52.480;9.806;2022-09-12T02:51:33;6.57;;;5.27;;
19347;SDS011;9810;52.480;9.806;2022-09-12T02:54:00;11.50;;;6.90;;
19347;SDS011;9810;52.480;9.806;2022-09-12T02:56:30;7.27;;;6.07;;
19347;SDS011;9810;52.480;9.806;2022-09-12T02:58:58;8.50;;;6.37;;
19347;SDS011;9810;52.480;9.806;2022-09-12T03:01:32;10.10;;;6.47;;
19347;SDS011;9810;52.480;9.806;2022-09-12T03:04:18;9.63;;;6.50;;
19347;SDS011;9810;52.480;9.806;2022-09-12T03:06:57;9.17;;;6.33;;
19347;SDS011;9810;52.480;9.806;2022-09-12T03:09:34;9.07;;;5.87;;
19347;SDS011;9810;52.480;9.806;2022-09-12T03:12:09;8.10;;;5.77;;
19347;SDS011;9810;52.480;9.806;2022-09-12T03:14:59;12.37;;;4.80;;
19347;SDS011;9810;52.480;9.806;2022-09-12T03:17:40;4.70;;;4.20;;
19347;SDS011;9810;52.480;9.806;2022-09-12T03:20:21;2.80;;;2.60;;
19347;SDS011;9810;52.480;9.806;2022-09-12T03:22:58;3.40;;;3.00;;
19347;SDS011;9810;52.480;9.806;2022-09-12T03:25:31;3.50;;;2.97;;
19347;SDS011;9810;52.480;9.806;2022-09-12T03:28:02;3.90;;;2.83;;
19347;SDS011;9810;52.480;9.806;2022-09-12T03:30:36;13.37;;;3.13;;
19347;SDS011;9810;52.480;9.806;2022-09-12T03:33:04;6.60;;;2.07;;
19347;SDS011;9810;52.480;9.806;2022-09-12T03:35:33;16.33;;;3.27;;
19347;SDS011;9810;52.480;9.806;2022-09-12T03:38:00;4.73;;;4.10;;
19347;SDS011;9810;52.480;9.806;2022-09-12T03:40:27;5.30;;;4.23;;
19347;SDS011;9810;52.480;9.806;2022-09-12T03:42:54;4.33;;;2.40;;
19347;SDS011;9810;52.480;9.806;2022-09-12T03:45:21;6.73;;;1.70;;
19347;SDS011;9810;52.480;9.806;2022-09-12T03:47:48;32.27;;;2.27;;
19347;SDS011;9810;52.480;9.806;2022-09-12T03:50:15;8.80;;;1.63;;
19347;SDS011;9810;52.480;9.806;2022-09-12T03:52:44;1.73;;;1.63;;
19347;SDS011;9810;52.480;9.806;2022-09-12T03:55:11;6.40;;;2.10;;
19347;SDS011;9810;52.480;9.806;2022-09-12T03:57:38;22.23;;;2.87;;
19347;SDS011;9810;52.480;9.806;2022-09-12T04:00:06;41.07;;;4.40;;
19347;SDS011;9810;52.480;9.806;2022-09-12T04:02:34;16.33;;;3.07;;
19347;SDS011;9810;52.480;9.806;2022-09-12T04:05:02;7.00;;;2.60;;
19347;SDS011;9810;52.480;9.806;2022-09-12T04:07:29;3.77;;;3.13;;
19347;SDS011;9810;52.480;9.806;2022-09-12T04:09:58;5.80;;;4.13;;
19347;SDS011;9810;52.480;9.806;2022-09-12T04:12:25;6.37;;;4.67;;
19347;SDS011;9810;52.480;9.806;2022-09-12T04:14:52;7.87;;;5.00;;
19347;SDS011;9810;52.480;9.806;2022-09-12T04:17:19;9.20;;;5.50;;
19347;SDS011;9810;52.480;9.806;2022-09-12T04:19:46;12.20;;;6.17;;
19347;SDS011;9810;52.480;9.806;2022-09-12T04:22:13;13.63;;;5.73;;
19347;SDS011;9810;52.480;9.806;2022-09-12T04:24:41;12.47;;;6.60;;
19347;SDS011;9810;52.480;9.806;2022-09-12T04:27:10;7.00;;;5.00;;
19347;SDS011;9810;52.480;9.806;2022-09-12T04:29:37;6.33;;;2.87;;
19347;SDS011;9810;52.480;9.806;2022-09-12T04:32:04;3.03;;;2.73;;
19347;SDS011;9810;52.480;9.806;2022-09-12T04:34:31;3.27;;;2.97;;
19347;SDS011;9810;52.480;9.806;2022-09-12T04:36:59;5.03;;;3.93;;
19347;SDS011;9810;52.480;9.806;2022-09-12T04:39:26;7.97;;;5.43;;
19347;SDS011;9810;52.480;9.806;2022-09-12T04:41:53;10.17;;;4.43;;
19347;SDS011;9810;52.480;9.806;2022-09-12T04:44:22;7.33;;;5.07;;
19347;SDS011;9810;52.480;9.806;2022-09-12T04:46:49;7.43;;;4.67;;
19347;SDS011;9810;52.480;9.806;2022-09-12T04:49:16;8.53;;;5.00;;
19347;SDS011;9810;52.480;9.806;2022-09-12T04:51:44;3.80;;;3.40;;
19347;SDS011;9810;52.480;9.806;2022-09-12T04:54:12;4.50;;;3.03;;
19347;SDS011;9810;52.480;9.806;2022-09-12T04:56:42;5.43;;;3.80;;
19347;SDS011;9810;52.480;9.806;2022-09-12T04:59:10;4.73;;;3.43;;
19347;SDS011;9810;52.480;9.806;2022-09-12T05:01:41;6.07;;;4.33;;
19347;SDS011;9810;52.480;9.806;2022-09-12T05:04:09;10.87;;;5.63;;
19347;SDS011;9810;52.480;9.806;2022-09-12T05:06:37;6.70;;;5.17;;
19347;SDS011;9810;52.480;9.806;2022-09-12T05:09:06;9.47;;;6.40;;
19347;SDS011;9810;52.480;9.806;2022-09-12T05:11:36;8.47;;;4.70;;
19347;SDS011;9810;52.480;9.806;2022-09-12T05:14:04;7.13;;;3.93;;
19347;SDS011;9810;52.480;9.806;2022-09-12T05:16:32;6.60;;;4.50;;
19347;SDS011;9810;52.480;9.806;2022-09-12T05:19:01;6.67;;;4.50;;
19347;SDS011;9810;52.480;9.806;2022-09-12T05:21:28;5.27;;;3.93;;
19347;SDS011;9810;52.480;9.806;2022-09-12T05:23:56;8.83;;;3.67;;
19347;SDS011;9810;52.480;9.806;2022-09-12T05:26:24;3.03;;;2.23;;
19347;SDS011;9810;52.480;9.806;2022-09-12T05:28:52;3.27;;;2.97;;
19347;SDS011;9810;52.480;9.806;2022-09-12T05:31:20;5.93;;;4.27;;
19347;SDS011;9810;52.480;9.806;2022-09-12T05:33:49;8.37;;;5.40;;
19347;SDS011;9810;52.480;9.806;2022-09-12T05:36:19;10.97;;;6.23;;
19347;SDS011;9810;52.480;9.806;2022-09-12T05:38:48;14.20;;;6.73;;
19347;SDS011;9810;52.480;9.806;2022-09-12T05:41:16;9.97;;;7.47;;
19347;SDS011;9810;52.480;9.806;2022-09-12T05:43:44;15.13;;;7.47;;
19347;SDS011;9810;52.480;9.806;2022-09-12T05:46:12;12.67;;;6.80;;
19347;SDS011;9810;52.480;9.806;2022-09-12T05:48:42;9.70;;;6.93;;
19347;SDS011;9810;52.480;9.806;2022-09-12T05:51:12;10.60;;;6.07;;
19347;SDS011;9810;52.480;9.806;2022-09-12T05:53:45;12.17;;;6.73;;
19347;SDS011;9810;52.480;9.806;2022-09-12T05:56:14;8.57;;;6.17;;
19347;SDS011;9810;52.480;9.806;2022-09-12T05:58:43;12.60;;;6.27;;
19347;SDS011;9810;52.480;9.806;2022-09-12T06:01:13;10.63;;;6.20;;
19347;SDS011;9810;52.480;9.806;2022-09-12T06:03:42;18.73;;;6.33;;
19347;SDS011;9810;52.480;9.806;2022-09-12T06:06:10;14.13;;;8.90;;
19347;SDS011;9810;52.480;9.806;2022-09-12T06:08:39;13.83;;;8.13;;
19347;SDS011;9810;52.480;9.806;2022-09-12T06:11:10;16.47;;;8.93;;
19347;SDS011;9810;52.480;9.806;2022-09-12T06:13:39;16.77;;;9.93;;
19347;SDS011;9810;52.480;9.806;2022-09-12T06:16:08;18.37;;;10.03;;
19347;SDS011;9810;52.480;9.806;2022-09-12T06:18:37;17.80;;;8.83;;
19347;SDS011;9810;52.480;9.806;2022-09-12T06:21:05;18.80;;;11.93;;
19347;SDS011;9810;52.480;9.806;2022-09-12T06:23:33;20.93;;;12.00;;
19347;SDS011;9810;52.480;9.806;2022-09-12T06:26:01;20.13;;;12.80;;
19347;SDS011;9810;52.480;9.806;2022-09-12T06:28:31;22.70;;;13.33;;
19347;SDS011;9810;52.480;9.806;2022-09-12T06:31:00;22.00;;;12.80;;
19347;SDS011;9810;52.480;9.806;2022-09-12T06:33:29;21.13;;;12.23;;
19347;SDS011;9810;52.480;9.806;2022-09-12T06:36:01;24.60;;;13.00;;
19347;SDS011;9810;52.480;9.806;2022-09-12T06:38:29;22.53;;;12.17;;
19347;SDS011;9810;52.480;9.806;2022-09-12T06:40:56;27.50;;;15.03;;
19347;SDS011;9810;52.480;9.806;2022-09-12T06:43:24;21.33;;;13.10;;
19347;SDS011;9810;52.480;9.806;2022-09-12T06:45:53;21.63;;;13.73;;
19347;SDS011;9810;52.480;9.806;2022-09-12T06:48:21;23.63;;;14.57;;
19347;SDS011;9810;52.480;9.806;2022-09-12T06:50:54;26.60;;;14.80;;
19347;SDS011;9810;52.480;9.806;2022-09-12T06:53:23;27.57;;;15.27;;
19347;SDS011;9810;52.480;9.806;2022-09-12T06:55:54;28.17;;;15.57;;
19347;SDS011;9810;52.480;9.806;2022-09-12T06:58:22;28.50;;;15.70;;
19347;SDS011;9810;52.480;9.806;2022-09-12T07:00:50;21.63;;;13.87;;
19347;SDS011;9810;52.480;9.806;2022-09-12T07:03:19;20.67;;;13.33;;
19347;SDS011;9810;52.480;9.806;2022-09-12T07:05:46;22.70;;;13.60;;
19347;SDS011;9810;52.480;9.806;2022-09-12T07:08:14;20.73;;;13.47;;
19347;SDS011;9810;52.480;9.806;2022-09-12T07:10:41;17.57;;;12.13;;
19347;SDS011;9810;52.480;9.806;2022-09-12T07:13:08;18.43;;;12.53;;
19347;SDS011;9810;52.480;9.806;2022-09-12T07:15:35;24.77;;;14.27;;
19347;SDS011;9810;52.480;9.806;2022-09-12T07:18:02;21.87;;;13.03;;
19347;SDS011;9810;52.480;9.806;2022-09-12T07:20:31;21.30;;;13.23;;
19347;SDS011;9810;52.480;9.806;2022-09-12T07:22:58;21.63;;;13.37;;
19347;SDS011;9810;52.480;9.806;2022-09-12T07:25:25;19.67;;;13.40;;
19347;SDS011;9810;52.480;9.806;2022-09-12T07:27:52;17.90;;;12.63;;
19347;SDS011;9810;52.480;9.806;2022-09-12T07:30:20;19.10;;;12.30;;
19347;SDS011;9810;52.480;9.806;2022-09-12T07:32:50;21.30;;;12.57;;
19347;SDS011;9810;52.480;9.806;2022-09-12T07:35:18;21.10;;;12.80;;
19347;SDS011;9810;52.480;9.806;2022-09-12T07:37:48;18.47;;;11.77;;
19347;SDS011;9810;52.480;9.806;2022-09-12T07:40:16;18.10;;;12.07;;
19347;SDS011;9810;52.480;9.806;2022-09-12T07:42:42;16.40;;;10.90;;
19347;SDS011;9810;52.480;9.806;2022-09-12T07:45:09;15.80;;;10.73;;
19347;SDS011;9810;52.480;9.806;2022-09-12T07:47:37;17.10;;;11.03;;
19347;SDS011;9810;52.480;9.806;2022-09-12T07:50:05;18.53;;;11.87;;
19347;SDS011;9810;52.480;9.806;2022-09-12T07:52:32;17.60;;;11.33;;
19347;SDS011;9810;52.480;9.806;2022-09-12T07:55:02;20.87;;;11.17;;
19347;SDS011;9810;52.480;9.806;2022-09-12T07:57:29;15.55;;;10.20;;
19347;SDS011;9810;52.480;9.806;2022-09-12T07:59:56;15.00;;;9.80;;
19347;SDS011;9810;52.480;9.806;2022-09-12T08:02:23;16.45;;;9.95;;
19347;SDS011;9810;52.480;9.806;2022-09-12T08:04:50;13.90;;;9.32;;
19347;SDS011;9810;52.480;9.806;2022-09-12T08:07:17;12.52;;;8.65;;
19347;SDS011;9810;52.480;9.806;2022-09-12T08:09:44;14.27;;;9.25;;
19347;SDS011;9810;52.480;9.806;2022-09-12T08:12:14;12.40;;;9.02;;
19347;SDS011;9810;52.480;9.806;2022-09-12T08:14:41;12.77;;;9.27;;
19347;SDS011;9810;52.480;9.806;2022-09-12T08:17:09;13.63;;;9.80;;
19347;SDS011;9810;52.480;9.806;2022-09-12T08:19:36;14.15;;;8.90;;
19347;SDS011;9810;52.480;9.806;2022-09-12T08:22:04;11.02;;;8.20;;
19347;SDS011;9810;52.480;9.806;2022-09-12T08:24:30;14.40;;;8.68;;
19347;SDS011;9810;52.480;9.806;2022-09-12T08:26:57;12.85;;;9.38;;
19347;SDS011;9810;52.480;9.806;2022-09-12T08:29:26;11.55;;;8.70;;
19347;SDS011;9810;52.480;9.806;2022-09-12T08:31:54;11.02;;;8.77;;
19347;SDS011;9810;52.480;9.806;2022-09-12T08:34:21;14.95;;;9.35;;
19347;SDS011;9810;52.480;9.806;2022-09-12T08:36:48;16.17;;;10.18;;
19347;SDS011;9810;52.480;9.806;2022-09-12T08:39:18;14.02;;;8.55;;
19347;SDS011;9810;52.480;9.806;2022-09-12T08:41:46;11.25;;;8.45;;
19347;SDS011;9810;52.480;9.806;2022-09-12T08:44:28;14.90;;;9.00;;
19347;SDS011;9810;52.480;9.806;2022-09-12T08:47:11;15.65;;;8.68;;
19347;SDS011;9810;52.480;9.806;2022-09-12T08:49:47;17.77;;;8.95;;
19347;SDS011;9810;52.480;9.806;2022-09-12T08:52:24;15.40;;;9.80;;
19347;SDS011;9810;52.480;9.806;2022-09-12T08:54:55;14.05;;;8.80;;
19347;SDS011;9810;52.480;9.806;2022-09-12T08:57:22;13.40;;;9.68;;
19347;SDS011;9810;52.480;9.806;2022-09-12T08:59:51;14.02;;;9.20;;
19347;SDS011;9810;52.480;9.806;2022-09-12T09:02:27;13.68;;;7.78;;
19347;SDS011;9810;52.480;9.806;2022-09-12T09:05:13;11.52;;;7.65;;
19347;SDS011;9810;52.480;9.806;2022-09-12T09:07:55;9.40;;;6.82;;
19347;SDS011;9810;52.480;9.806;2022-09-12T09:10:37;13.07;;;8.48;;
19347;SDS011;9810;52.480;9.806;2022-09-12T09:13:15;9.38;;;6.60;;
19347;SDS011;9810;52.480;9.806;2022-09-12T09:16:16;6.95;;;5.15;;
19347;SDS011;9810;52.480;9.806;2022-09-12T09:18:47;6.15;;;4.65;;
19347;SDS011;9810;52.480;9.806;2022-09-12T09:21:19;5.78;;;4.72;;
19347;SDS011;9810;52.480;9.806;2022-09-12T09:23:53;8.20;;;3.88;;
19347;SDS011;9810;52.480;9.806;2022-09-12T09:26:27;7.72;;;4.10;;
19347;SDS011;9810;52.480;9.806;2022-09-12T09:28:59;7.20;;;4.07;;
19347;SDS011;9810;52.480;9.806;2022-09-12T09:31:34;5.90;;;4.13;;
19347;SDS011;9810;52.480;9.806;2022-09-12T09:34:07;5.88;;;3.40;;
19347;SDS011;9810;52.480;9.806;2022-09-12T09:36:42;5.43;;;3.72;;
19347;SDS011;9810;52.480;9.806;2022-09-12T09:39:16;5.18;;;3.47;;
19347;SDS011;9810;52.480;9.806;2022-09-12T09:41:51;7.72;;;4.40;;
19347;SDS011;9810;52.480;9.806;2022-09-12T09:44:28;4.88;;;3.53;;
19347;SDS011;9810;52.480;9.806;2022-09-12T09:46:58;9.40;;;3.80;;
19347;SDS011;9810;52.480;9.806;2022-09-12T09:49:26;5.45;;;3.88;;
19347;SDS011;9810;52.480;9.806;2022-09-12T09:51:56;5.22;;;3.75;;
19347;SDS011;9810;52.480;9.806;2022-09-12T09:54:26;7.05;;;3.47;;
19347;SDS011;9810;52.480;9.806;2022-09-12T09:56:59;4.72;;;3.70;;
19347;SDS011;9810;52.480;9.806;2022-09-12T09:59:29;5.68;;;3.15;;
19347;SDS011;9810;52.480;9.806;2022-09-12T10:02:00;4.47;;;3.45;;
19347;SDS011;9810;52.480;9.806;2022-09-12T10:04:51;5.50;;;4.13;;
19347;SDS011;9810;52.480;9.806;2022-09-12T10:07:20;5.25;;;4.03;;
19347;SDS011;9810;52.480;9.806;2022-09-12T10:10:02;8.00;;;4.28;;
19347;SDS011;9810;52.480;9.806;2022-09-12T10:12:31;5.22;;;3.15;;
19347;SDS011;9810;52.480;9.806;2022-09-12T10:14:58;5.30;;;3.10;;
19347;SDS011;9810;52.480;9.806;2022-09-12T10:17:29;4.68;;;3.40;;
19347;SDS011;9810;52.480;9.806;2022-09-12T10:20:05;4.07;;;3.45;;
19347;SDS011;9810;52.480;9.806;2022-09-12T10:22:57;7.25;;;3.50;;
19347;SDS011;9810;52.480;9.806;2022-09-12T10:25:26;3.47;;;2.55;;
19347;SDS011;9810;52.480;9.806;2022-09-12T10:27:55;5.05;;;3.28;;
19347;SDS011;9810;52.480;9.806;2022-09-12T10:30:24;3.95;;;3.08;;
19347;SDS011;9810;52.480;9.806;2022-09-12T10:32:55;6.88;;;3.53;;
19347;SDS011;9810;52.480;9.806;2022-09-12T10:35:27;5.10;;;3.08;;
19347;SDS011;9810;52.480;9.806;2022-09-12T10:37:58;4.40;;;3.10;;
19347;SDS011;9810;52.480;9.806;2022-09-12T10:40:29;7.50;;;3.03;;
19347;SDS011;9810;52.480;9.806;2022-09-12T10:43:00;3.83;;;2.80;;
19347;SDS011;9810;52.480;9.806;2022-09-12T10:45:41;2.92;;;2.45;;
19347;SDS011;9810;52.480;9.806;2022-09-12T10:48:23;4.22;;;2.78;;
19347;SDS011;9810;52.480;9.806;2022-09-12T10:50:54;6.30;;;3.20;;
19347;SDS011;9810;52.480;9.806;2022-09-12T10:53:22;6.45;;;2.97;;
19347;SDS011;9810;52.480;9.806;2022-09-12T10:55:57;4.10;;;2.35;;
19347;SDS011;9810;52.480;9.806;2022-09-12T10:58:37;4.45;;;3.10;;
19347;SDS011;9810;52.480;9.806;2022-09-12T11:01:28;3.20;;;2.88;;
19347;SDS011;9810;52.480;9.806;2022-09-12T11:04:13;4.65;;;2.88;;
19347;SDS011;9810;52.480;9.806;2022-09-12T11:06:58;4.45;;;2.85;;
19347;SDS011;9810;52.480;9.806;2022-09-12T11:09:53;8.38;;;3.05;;
19347;SDS011;9810;52.480;9.806;2022-09-12T11:12:31;8.68;;;4.00;;
19347;SDS011;9810;52.480;9.806;2022-09-12T11:15:09;10.57;;;4.45;;
19347;SDS011;9810;52.480;9.806;2022-09-12T11:17:49;9.38;;;2.95;;
19347;SDS011;9810;52.480;9.806;2022-09-12T11:26:24;4.80;;;2.33;;
19347;SDS011;9810;52.480;9.806;2022-09-12T11:29:06;3.00;;;2.33;;
19347;SDS011;9810;52.480;9.806;2022-09-12T11:31:53;3.28;;;2.60;;
19347;SDS011;9810;52.480;9.806;2022-09-12T11:34:34;3.67;;;1.95;;
19347;SDS011;9810;52.480;9.806;2022-09-12T11:37:17;3.00;;;2.63;;
19347;SDS011;9810;52.480;9.806;2022-09-12T11:40:04;2.85;;;2.22;;
19347;SDS011;9810;52.480;9.806;2022-09-12T11:42:44;2.90;;;2.10;;
19347;SDS011;9810;52.480;9.806;2022-09-12T11:45:14;2.83;;;2.40;;
19347;SDS011;9810;52.480;9.806;2022-09-12T11:47:45;2.15;;;1.88;;
19347;SDS011;9810;52.480;9.806;2022-09-12T11:50:19;2.50;;;2.30;;
19347;SDS011;9810;52.480;9.806;2022-09-12T11:52:56;2.88;;;1.80;;
19347;SDS011;9810;52.480;9.806;2022-09-12T11:55:30;2.83;;;1.90;;
19347;SDS011;9810;52.480;9.806;2022-09-12T11:58:12;1.80;;;1.70;;
19347;SDS011;9810;52.480;9.806;2022-09-12T12:00:42;5.85;;;2.35;;
19347;SDS011;9810;52.480;9.806;2022-09-12T12:03:13;3.22;;;1.70;;
19347;SDS011;9810;52.480;9.806;2022-09-12T12:05:48;3.03;;;2.00;;
19347;SDS011;9810;52.480;9.806;2022-09-12T12:08:21;2.22;;;1.70;;
19347;SDS011;9810;52.480;9.806;2022-09-12T12:10:51;2.92;;;1.85;;
19347;SDS011;9810;52.480;9.806;2022-09-12T12:13:22;1.40;;;1.30;;
19347;SDS011;9810;52.480;9.806;2022-09-12T12:15:58;1.52;;;1.40;;
19347;SDS011;9810;52.480;9.806;2022-09-12T12:18:28;3.05;;;1.60;;
19347;SDS011;9810;52.480;9.806;2022-09-12T12:21:14;1.58;;;1.48;;
19347;SDS011;9810;52.480;9.806;2022-09-12T12:24:09;2.25;;;1.38;;
19347;SDS011;9810;52.480;9.806;2022-09-12T12:26:44;1.90;;;1.20;;
19347;SDS011;9810;52.480;9.806;2022-09-12T12:29:40;1.50;;;1.38;;
19347;SDS011;9810;52.480;9.806;2022-09-12T12:32:18;3.13;;;1.27;;
19347;SDS011;9810;52.480;9.806;2022-09-12T12:34:47;1.25;;;1.15;;
19347;SDS011;9810;52.480;9.806;2022-09-12T12:40:23;1.63;;;1.30;;
19347;SDS011;9810;52.480;9.806;2022-09-12T12:42:57;1.73;;;1.50;;
19347;SDS011;9810;52.480;9.806;2022-09-12T12:48:26;1.20;;;1.10;;
19347;SDS011;9810;52.480;9.806;2022-09-12T12:51:29;2.35;;;1.38;;
19347;SDS011;9810;52.480;9.806;2022-09-12T12:54:03;1.13;;;1.02;;
19347;SDS011;9810;52.480;9.806;2022-09-12T12:56:56;1.55;;;1.25;;
19347;SDS011;9810;52.480;9.806;2022-09-12T12:59:27;1.52;;;1.42;;
19347;SDS011;9810;52.480;9.806;2022-09-12T13:01:56;1.83;;;1.30;;
19347;SDS011;9810;52.480;9.806;2022-09-12T13:04:26;2.25;;;1.63;;
19347;SDS011;9810;52.480;9.806;2022-09-12T13:06:56;2.03;;;1.10;;
19347;SDS011;9810;52.480;9.806;2022-09-12T13:09:26;1.75;;;1.65;;
19347;SDS011;9810;52.480;9.806;2022-09-12T13:12:00;1.20;;;1.20;;
19347;SDS011;9810;52.480;9.806;2022-09-12T13:14:34;1.20;;;1.10;;
19347;SDS011;9810;52.480;9.806;2022-09-12T13:17:19;3.90;;;1.17;;
19347;SDS011;9810;52.480;9.806;2022-09-12T13:19:50;1.50;;;1.40;;
19347;SDS011;9810;52.480;9.806;2022-09-12T13:22:20;1.70;;;1.25;;
19347;SDS011;9810;52.480;9.806;2022-09-12T13:24:49;1.98;;;1.00;;
19347;SDS011;9810;52.480;9.806;2022-09-12T13:27:20;1.75;;;1.10;;
19347;SDS011;9810;52.480;9.806;2022-09-12T13:29:49;2.58;;;1.63;;
19347;SDS011;9810;52.480;9.806;2022-09-12T13:32:32;2.15;;;1.52;;
19347;SDS011;9810;52.480;9.806;2022-09-12T13:35:03;1.33;;;0.93;;
19347;SDS011;9810;52.480;9.806;2022-09-12T13:37:42;2.10;;;1.30;;
19347;SDS011;9810;52.480;9.806;2022-09-12T13:40:21;2.05;;;1.27;;
19347;SDS011;9810;52.480;9.806;2022-09-12T13:43:06;1.40;;;1.30;;
19347;SDS011;9810;52.480;9.806;2022-09-12T13:45:38;2.80;;;1.33;;
19347;SDS011;9810;52.480;9.806;2022-09-12T13:48:09;1.23;;;1.10;;
19347;SDS011;9810;52.480;9.806;2022-09-12T13:50:41;4.20;;;1.20;;
19347;SDS011;9810;52.480;9.806;2022-09-12T13:53:15;5.72;;;2.40;;
19347;SDS011;9810;52.480;9.806;2022-09-12T13:55:46;11.88;;;3.15;;
19347;SDS011;9810;52.480;9.806;2022-09-12T13:58:18;2.90;;;1.50;;
19347;SDS011;9810;52.480;9.806;2022-09-12T14:00:58;1.52;;;1.42;;
19347;SDS011;9810;52.480;9.806;2022-09-12T14:03:27;2.15;;;1.60;;
19347;SDS011;9810;52.480;9.806;2022-09-12T14:06:13;2.30;;;2.10;;
19347;SDS011;9810;52.480;9.806;2022-09-12T14:08:43;2.22;;;1.70;;
19347;SDS011;9810;52.480;9.806;2022-09-12T14:11:17;2.08;;;1.58;;
19347;SDS011;9810;52.480;9.806;2022-09-12T14:13:51;2.75;;;1.77;;
19347;SDS011;9810;52.480;9.806;2022-09-12T14:16:20;2.40;;;1.85;;
19347;SDS011;9810;52.480;9.806;2022-09-12T14:18:51;10.60;;;1.90;;
19347;SDS011;9810;52.480;9.806;2022-09-12T14:21:29;10.70;;;3.75;;
19347;SDS011;9810;52.480;9.806;2022-09-12T14:23:59;21.48;;;3.75;;
19347;SDS011;9810;52.480;9.806;2022-09-12T14:26:28;10.70;;;3.03;;
19347;SDS011;9810;52.480;9.806;2022-09-12T14:29:00;4.15;;;1.38;;
19347;SDS011;9810;52.480;9.806;2022-09-12T14:31:30;1.58;;;1.30;;
19347;SDS011;9810;52.480;9.806;2022-09-12T14:34:11;2.75;;;1.30;;
19347;SDS011;9810;52.480;9.806;2022-09-12T14:36:40;4.32;;;1.55;;
19347;SDS011;9810;52.480;9.806;2022-09-12T14:39:17;13.80;;;4.05;;
19347;SDS011;9810;52.480;9.806;2022-09-12T14:41:49;2.05;;;1.48;;
19347;SDS011;9810;52.480;9.806;2022-09-12T14:44:27;22.48;;;5.55;;
19347;SDS011;9810;52.480;9.806;2022-09-12T14:46:56;2.70;;;1.35;;
19347;SDS011;9810;52.480;9.806;2022-09-12T14:49:36;3.05;;;1.42;;
19347;SDS011;9810;52.480;9.806;2022-09-12T14:52:05;1.38;;;1.27;;
19347;SDS011;9810;52.480;9.806;2022-09-12T14:54:40;2.15;;;1.52;;
19347;SDS011;9810;52.480;9.806;2022-09-12T14:57:34;4.18;;;1.33;;
19347;SDS011;9810;52.480;9.806;2022-09-12T15:00:07;1.30;;;1.20;;
19347;SDS011;9810;52.480;9.806;2022-09-12T15:02:46;2.35;;;1.02;;
19347;SDS011;9810;52.480;9.806;2022-09-12T15:05:19;0.98;;;0.80;;
19347;SDS011;9810;52.480;9.806;2022-09-12T15:07:52;1.40;;;1.00;;
19347;SDS011;9810;52.480;9.806;2022-09-12T15:10:24;7.80;;;3.45;;
19347;SDS011;9810;52.480;9.806;2022-09-12T15:16:07;1.85;;;1.50;;
19347;SDS011;9810;52.480;9.806;2022-09-12T15:18:35;2.38;;;1.27;;
19347;SDS011;9810;52.480;9.806;2022-09-12T15:21:04;1.77;;;1.33;;
19347;SDS011;9810;52.480;9.806;2022-09-12T15:23:34;1.88;;;1.20;;
19347;SDS011;9810;52.480;9.806;2022-09-12T15:26:04;1.88;;;1.20;;
19347;SDS011;9810;52.480;9.806;2022-09-12T15:28:32;5.28;;;2.67;;
19347;SDS011;9810;52.480;9.806;2022-09-12T15:31:02;2.05;;;1.40;;
19347;SDS011;9810;52.480;9.806;2022-09-12T15:33:33;1.20;;;1.10;;
19347;SDS011;9810;52.480;9.806;2022-09-12T15:36:01;3.60;;;1.08;;
19347;SDS011;9810;52.480;9.806;2022-09-12T15:38:28;2.88;;;1.50;;
19347;SDS011;9810;52.480;9.806;2022-09-12T15:40:55;4.00;;;1.67;;